EA1AHA
43.32.74N 005.54.36W
IN73BN aprs.fi
2km/h, 160°
zuletzt gehört:
2022-01-18T00:31:46Z

APRS IN73BM, 0 Stunde(n), EA1AHA [09:22:23, 0s].
EA1AHA 43.32.72N 005.54.38WIN73BN 0.574km 337°NNW08:21:25ZWind 000°/000kn, Böen bis 001kn, Temp 4.44c, Regen 0.0mm, letzte 24h 0.3mm, seit 0h 0.3mm, Baro 1033.5h, Hum: 81%(3EA1AHA-13)
ED1ZAY 43.29.47N 005.56.54WIN73AL 6.325km 210°SSW08:03:13ZRD625 438.3000/430.7000 CC1
LEGM 43.26.15N 005.49.84WIN73CK 13.046km 153°SSE08:00:07ZHelipuerto de La Morgal: LEAS 180700Z 20004KT CAVOK 03/01 Q1031 NOSIG=
LEMR 43.25.83N 005.49.60WIN73CK 13.731km 153°SSE08:00:12ZAerodromo de la Morgal: LEAS 180700Z 20004KT CAVOK 03/01 Q1031 NOSIG=
EB1TK 43.32.22N 005.42.32WIN73DM 15.984km 91°E08:15:26ZWind 225°/004kn, Böen bis 005kn, Temp 6.11c, Regen 0.0mm, letzte 24h 0.0mm, seit 0h 0.0mm, Baro 1034.9h, Hum: 74%(3EB1TK-13)
EA1ABW 43.24.77N 005.47.77WIN73CJ 16.630km 149°SSE08:00:54ZMMDVM MMDVM HS Hat 439.8250/439.8250 CC1
LEEL 43.32.98N 005.41.71WIN73DN 16.813km 87°E08:00:12ZHelipuerto de El Musel: LEAS 180700Z 20004KT CAVOK 03/01 Q1031 NOSIG=
ED1ZAU 43.23.04N 005.52.75WIN73BJ 17.535km 174°S08:03:12ZRD625 438.5000/430.9000 CC1
EA1IEJ 43.31.81N 005.40.25WIN73DM 18.796km 93°E08:01:42ZMMDVM MMDVM HS Hat 438.8500/438.8500 CC6
EA1DZR 43.31.48N 005.40.00WIN73EM 19.181km 95°E08:03:02ZMMDVM DV ADER 434.3500/434.3500 CC1
LEHU 43.22.63N 005.49.57WIN73CJ 19.224km 161°SSE08:00:12ZHelipuerto del HUCA: LEAS 180700Z 20004KT CAVOK 03/01 Q1031 NOSIG=
EA1YR 43.22.09N 005.51.86WIN73BI 19.425km 171°S08:03:10ZMMDVM DVS 434.3500/434.3500 CC1
ED1ZAE 43.27.97N 005.40.54WIN73DL 20.144km 114°ESE08:10:12ZWIDE3-3 ESAS3-3 IN73DL WWW.EA1URG.ORG(3ED1ZAE-3)
2m Voice 145.5875 -0.600 Mhz(2ED1ZAE-C)
EC1AE 43.22.82N 005.46.98WIN73CJ 20.309km 151°SSE08:16:05Z`_%(3EC1AE-9)
33D00 43.21.63N 005.51.13WIN73BI 20.463km 168°SSE08:02:30Z33-D-00 Protección Civil REMER / Delegación del Gobierno en Asturias
ED1ZAS 43.27.52N 005.40.17WIN73DL 20.948km 116°ESE08:03:14ZRD985 438.2250/430.6250 CC1
EA1L 43.20.37N 005.51.13WIN73BI 22.736km 169°S08:20:08Zea1l@ure.es V=13.5V,T=??.?C
Wind 148°/000kn, Böen bis 001kn, Temp 1.11c, Regen 0.0mm, letzte 24h 0.0mm, seit 0h 0.0mm, Baro 1030.2h, Hum: 97%(2EA1L-13)
EA1HWX 43.19.39N 005.50.84WIN73BH 24.593km 169°S08:03:06ZMMDVM DMO 435.5000/435.5000 CC1
EB1GEM 43.30.00N 005.36.07WIN73EM 24.795km 100°E08:11:55ZWX3in1Plus2.0 U=13.3V,T=??.?C/??.?F(3EB1GEM-3)
EA1HJA 43.28.10N 005.30.45WIN73FL 32.940km 104°ESE08:14:38Z IN73FL WX3IN1+ 2.0 - V=14.0V,TX TEMP=42.3C
IN73FL WX3IN1+ 2.0 - V=13.2V,TX TEMP=19.6C(2EA1HJA-2)
EA1IMW 43.14.36N 005.46.93WIN73CF 34.916km 164°SSE08:02:34ZGRUPO RADIO GALENA (GRG) 430.4500/430.4500 CC1
EA1JAY 43.29.33N 005.26.78WIN73GL 37.313km 99°E08:15:10Z434.525MHz Nodo TETRA DMO(3EA1JAY-4)
EA1JAY(2EA1JAY-2)
EA1FHR 43.28.72N 005.26.41WIN73GL 37.986km 100°E08:01:28ZMMDVM MMDVM HS Hat 439.1500/439.1500 CC1
EA1HWD 43.28.96N 005.26.30WIN73GL 38.066km 100°E08:02:32Z144.575FM Local frecuency VHF. 434.2500/434.2500 CC1
EA1JBL 43.12.28N 005.47.42WIN73CE 38.447km 166°SSE08:02:35ZMMDVM DVMega 435.3000/435.3000 CC1
EB1DGC 43.12.60N 005.45.59WIN73CF 38.558km 162°SSE08:02:19ZMMDVM MMDVM HS Hat 433.4500/433.4500 CC1
EA1HWA 43.12.00N 005.47.40WIN73CE 38.979km 166°SSE08:01:49ZMMDVM MMDVM HS Hat 433.4500/433.4500 CC1
EA1RCG 43.09.45N 005.49.78WIN73CD 43.004km 172°S08:01:18ZGRUPO RADIO GALENA (GRG) 430.4500/430.4500 CC1
LETN 43.20.05N 006.22.69WIN63TI 44.679km 239°WSW08:00:09ZAerodromo de La Curiscada (Tineo): LEAS 180700Z 20004KT CAVOK 03/01 Q1031 NOSIG=
EA1GHF 43.17.99N 006.22.79WIN63TH 46.864km 235°SW08:16:58ZMMDVM MMDVM HS Hat 434.4000/434.4000 CC1
440 MMDVM Voice 434.40000MHz +0.0000MHz, APRS for DMRGateway(2EA1GHF-D)

aprs.pl 5.0.011w DL3EL © 2006-2021 [1425679]